sensor_id;sensor_type;location;lat;lon;timestamp;pressure;altitude;pressure_sealevel;temperature;humidity
62632;BME280;48703;51.248;-0.546;2023-01-10T00:02:20;100861;;;4.43;84.34
62632;BME280;48703;51.248;-0.546;2023-01-10T00:05:22;100871;;;4.40;84.21
62632;BME280;48703;51.248;-0.546;2023-01-10T00:08:24;100877;;;4.39;84.39
62632;BME280;48703;51.248;-0.546;2023-01-10T00:11:26;100879;;;4.37;84.39
62632;BME280;48703;51.248;-0.546;2023-01-10T00:14:28;100875;;;4.35;84.29
62632;BME280;48703;51.248;-0.546;2023-01-10T00:17:30;100877;;;4.34;84.58
62632;BME280;48703;51.248;-0.546;2023-01-10T00:20:32;100877;;;4.33;84.57
62632;BME280;48703;51.248;-0.546;2023-01-10T00:23:33;100872;;;4.32;84.55
62632;BME280;48703;51.248;-0.546;2023-01-10T00:26:35;100874;;;4.31;84.57
62632;BME280;48703;51.248;-0.546;2023-01-10T00:29:37;100873;;;4.29;84.76
62632;BME280;48703;51.248;-0.546;2023-01-10T00:32:40;100873;;;4.29;84.74
62632;BME280;48703;51.248;-0.546;2023-01-10T00:35:41;100878;;;4.28;84.79
62632;BME280;48703;51.248;-0.546;2023-01-10T00:38:43;100883;;;4.28;84.93
62632;BME280;48703;51.248;-0.546;2023-01-10T00:41:45;100879;;;4.28;84.85
62632;BME280;48703;51.248;-0.546;2023-01-10T00:44:47;100883;;;4.27;84.70
62632;BME280;48703;51.248;-0.546;2023-01-10T00:47:49;100884;;;4.24;84.77
62632;BME280;48703;51.248;-0.546;2023-01-10T00:50:51;100894;;;4.24;85.06
62632;BME280;48703;51.248;-0.546;2023-01-10T00:53:53;100898;;;4.24;85.05
62632;BME280;48703;51.248;-0.546;2023-01-10T00:56:55;100895;;;4.22;84.97
62632;BME280;48703;51.248;-0.546;2023-01-10T00:59:57;100899;;;4.21;85.06
62632;BME280;48703;51.248;-0.546;2023-01-10T01:02:59;100894;;;4.19;84.94
62632;BME280;48703;51.248;-0.546;2023-01-10T01:06:02;100895;;;4.18;85.19
62632;BME280;48703;51.248;-0.546;2023-01-10T01:09:03;100898;;;4.18;85.25
62632;BME280;48703;51.248;-0.546;2023-01-10T01:12:06;100896;;;4.18;85.10
62632;BME280;48703;51.248;-0.546;2023-01-10T01:15:08;100904;;;4.18;85.24
62632;BME280;48703;51.248;-0.546;2023-01-10T01:18:10;100907;;;4.15;85.15
62632;BME280;48703;51.248;-0.546;2023-01-10T01:21:11;100911;;;4.14;85.19
62632;BME280;48703;51.248;-0.546;2023-01-10T01:24:13;100910;;;4.12;85.15
62632;BME280;48703;51.248;-0.546;2023-01-10T01:27:15;100915;;;4.09;85.10
62632;BME280;48703;51.248;-0.546;2023-01-10T01:30:17;100911;;;4.09;85.31
62632;BME280;48703;51.248;-0.546;2023-01-10T01:33:19;100924;;;4.08;85.39
62632;BME280;48703;51.248;-0.546;2023-01-10T01:36:21;100920;;;4.08;85.58
62632;BME280;48703;51.248;-0.546;2023-01-10T01:39:23;100931;;;4.10;85.82
62632;BME280;48703;51.248;-0.546;2023-01-10T01:42:26;100936;;;4.11;85.78
62632;BME280;48703;51.248;-0.546;2023-01-10T01:45:35;100926;;;4.13;85.90
62632;BME280;48703;51.248;-0.546;2023-01-10T01:48:31;100913;;;4.14;85.87
62632;BME280;48703;51.248;-0.546;2023-01-10T01:51:31;100912;;;4.15;85.88
62632;BME280;48703;51.248;-0.546;2023-01-10T01:54:33;100911;;;4.16;85.86
62632;BME280;48703;51.248;-0.546;2023-01-10T01:57:35;100910;;;4.16;85.87
62632;BME280;48703;51.248;-0.546;2023-01-10T02:00:37;100907;;;4.16;85.81
62632;BME280;48703;51.248;-0.546;2023-01-10T02:03:39;100909;;;4.17;85.99
62632;BME280;48703;51.248;-0.546;2023-01-10T02:06:41;100918;;;4.17;85.97
62632;BME280;48703;51.248;-0.546;2023-01-10T02:09:44;100926;;;4.18;85.93
62632;BME280;48703;51.248;-0.546;2023-01-10T02:12:45;100931;;;4.19;86.01
62632;BME280;48703;51.248;-0.546;2023-01-10T02:15:47;100934;;;4.20;86.00
62632;BME280;48703;51.248;-0.546;2023-01-10T02:18:49;100938;;;4.20;86.09
62632;BME280;48703;51.248;-0.546;2023-01-10T02:21:57;100939;;;4.22;86.09
62632;BME280;48703;51.248;-0.546;2023-01-10T02:24:18;100936;;;4.21;86.11
62632;BME280;48703;51.248;-0.546;2023-01-10T02:27:27;100937;;;4.22;86.08
62632;BME280;48703;51.248;-0.546;2023-01-10T02:32:11;100940;;;4.22;86.21
62632;BME280;48703;51.248;-0.546;2023-01-10T02:32:59;100937;;;4.24;86.23
62632;BME280;48703;51.248;-0.546;2023-01-10T02:36:03;100941;;;4.26;86.03
62632;BME280;48703;51.248;-0.546;2023-01-10T02:39:03;100938;;;4.26;86.18
62632;BME280;48703;51.248;-0.546;2023-01-10T02:42:06;100934;;;4.27;86.18
62632;BME280;48703;51.248;-0.546;2023-01-10T02:45:08;100928;;;4.27;86.11
62632;BME280;48703;51.248;-0.546;2023-01-10T02:48:09;100926;;;4.26;86.11
62632;BME280;48703;51.248;-0.546;2023-01-10T02:51:14;100925;;;4.26;86.11
62632;BME280;48703;51.248;-0.546;2023-01-10T02:54:14;100927;;;4.27;86.22
62632;BME280;48703;51.248;-0.546;2023-01-10T02:57:18;100922;;;4.27;86.13
62632;BME280;48703;51.248;-0.546;2023-01-10T03:00:27;100922;;;4.28;86.16
62632;BME280;48703;51.248;-0.546;2023-01-10T03:03:22;100927;;;4.27;86.31
62632;BME280;48703;51.248;-0.546;2023-01-10T03:06:22;100938;;;4.28;86.21
62632;BME280;48703;51.248;-0.546;2023-01-10T03:09:23;100940;;;4.29;86.06
62632;BME280;48703;51.248;-0.546;2023-01-10T03:12:27;100936;;;4.29;85.97
62632;BME280;48703;51.248;-0.546;2023-01-10T03:15:27;100933;;;4.30;86.04
62632;BME280;48703;51.248;-0.546;2023-01-10T03:18:30;100938;;;4.30;86.06
62632;BME280;48703;51.248;-0.546;2023-01-10T03:21:30;100938;;;4.31;85.97
62632;BME280;48703;51.248;-0.546;2023-01-10T03:24:35;100933;;;4.32;85.82
62632;BME280;48703;51.248;-0.546;2023-01-10T03:27:39;100928;;;4.34;85.95
62632;BME280;48703;51.248;-0.546;2023-01-10T03:30:40;100916;;;4.33;86.01
62632;BME280;48703;51.248;-0.546;2023-01-10T03:33:38;100900;;;4.34;85.95
62632;BME280;48703;51.248;-0.546;2023-01-10T03:36:44;100888;;;4.35;86.09
62632;BME280;48703;51.248;-0.546;2023-01-10T03:39:49;100871;;;4.35;86.07
62632;BME280;48703;51.248;-0.546;2023-01-10T03:42:48;100868;;;4.35;86.15
62632;BME280;48703;51.248;-0.546;2023-01-10T03:45:50;100870;;;4.35;86.25
62632;BME280;48703;51.248;-0.546;2023-01-10T03:48:48;100872;;;4.37;86.34
62632;BME280;48703;51.248;-0.546;2023-01-10T03:51:50;100868;;;4.39;86.35
62632;BME280;48703;51.248;-0.546;2023-01-10T03:54:52;100857;;;4.41;86.45
62632;BME280;48703;51.248;-0.546;2023-01-10T03:57:54;100844;;;4.42;86.46
62632;BME280;48703;51.248;-0.546;2023-01-10T04:00:56;100840;;;4.44;86.46
62632;BME280;48703;51.248;-0.546;2023-01-10T04:03:58;100840;;;4.45;86.60
62632;BME280;48703;51.248;-0.546;2023-01-10T04:07:00;100839;;;4.46;86.65
62632;BME280;48703;51.248;-0.546;2023-01-10T04:10:02;100835;;;4.47;86.64
62632;BME280;48703;51.248;-0.546;2023-01-10T04:13:04;100835;;;4.48;86.44
62632;BME280;48703;51.248;-0.546;2023-01-10T04:16:06;100839;;;4.47;86.40
62632;BME280;48703;51.248;-0.546;2023-01-10T04:19:08;100835;;;4.47;86.43
62632;BME280;48703;51.248;-0.546;2023-01-10T04:22:10;100830;;;4.47;86.43
62632;BME280;48703;51.248;-0.546;2023-01-10T04:25:12;100828;;;4.47;86.46
62632;BME280;48703;51.248;-0.546;2023-01-10T04:28:14;100828;;;4.47;86.50
62632;BME280;48703;51.248;-0.546;2023-01-10T04:31:16;100827;;;4.48;86.56
62632;BME280;48703;51.248;-0.546;2023-01-10T04:34:18;100821;;;4.49;86.69
62632;BME280;48703;51.248;-0.546;2023-01-10T04:37:20;100820;;;4.50;86.93
62632;BME280;48703;51.248;-0.546;2023-01-10T04:40:22;100814;;;4.50;87.04
62632;BME280;48703;51.248;-0.546;2023-01-10T04:43:25;100811;;;4.51;87.31
62632;BME280;48703;51.248;-0.546;2023-01-10T04:46:26;100806;;;4.52;87.31
62632;BME280;48703;51.248;-0.546;2023-01-10T04:49:28;100804;;;4.52;87.36
62632;BME280;48703;51.248;-0.546;2023-01-10T04:52:30;100804;;;4.53;87.37
62632;BME280;48703;51.248;-0.546;2023-01-10T04:55:32;100801;;;4.55;87.29
62632;BME280;48703;51.248;-0.546;2023-01-10T04:58:35;100797;;;4.56;87.34
62632;BME280;48703;51.248;-0.546;2023-01-10T05:01:36;100793;;;4.57;87.36
62632;BME280;48703;51.248;-0.546;2023-01-10T05:04:38;100790;;;4.58;87.62
62632;BME280;48703;51.248;-0.546;2023-01-10T05:07:40;100779;;;4.61;87.80
62632;BME280;48703;51.248;-0.546;2023-01-10T05:10:42;100780;;;4.64;87.97
62632;BME280;48703;51.248;-0.546;2023-01-10T05:13:44;100779;;;4.67;87.99
62632;BME280;48703;51.248;-0.546;2023-01-10T05:16:46;100781;;;4.71;88.04
62632;BME280;48703;51.248;-0.546;2023-01-10T05:19:48;100778;;;4.74;88.15
62632;BME280;48703;51.248;-0.546;2023-01-10T05:22:50;100782;;;4.77;88.23
62632;BME280;48703;51.248;-0.546;2023-01-10T05:25:52;100782;;;4.80;88.25
62632;BME280;48703;51.248;-0.546;2023-01-10T05:28:54;100780;;;4.84;88.24
62632;BME280;48703;51.248;-0.546;2023-01-10T05:31:56;100782;;;4.87;88.25
62632;BME280;48703;51.248;-0.546;2023-01-10T05:34:58;100781;;;4.90;88.32
62632;BME280;48703;51.248;-0.546;2023-01-10T05:38:00;100773;;;4.93;88.25
62632;BME280;48703;51.248;-0.546;2023-01-10T05:41:02;100765;;;4.96;88.30
62632;BME280;48703;51.248;-0.546;2023-01-10T05:44:04;100758;;;4.98;88.40
62632;BME280;48703;51.248;-0.546;2023-01-10T05:47:06;100751;;;5.01;88.51
62632;BME280;48703;51.248;-0.546;2023-01-10T05:50:08;100744;;;5.05;88.45
62632;BME280;48703;51.248;-0.546;2023-01-10T05:53:10;100743;;;5.08;88.47
62632;BME280;48703;51.248;-0.546;2023-01-10T05:56:12;100745;;;5.11;88.52
62632;BME280;48703;51.248;-0.546;2023-01-10T05:59:14;100743;;;5.14;88.61
62632;BME280;48703;51.248;-0.546;2023-01-10T06:02:16;100742;;;5.17;88.77
62632;BME280;48703;51.248;-0.546;2023-01-10T06:05:18;100740;;;5.19;89.07
62632;BME280;48703;51.248;-0.546;2023-01-10T06:08:20;100738;;;5.22;89.20
62632;BME280;48703;51.248;-0.546;2023-01-10T06:11:22;100738;;;5.25;89.36
62632;BME280;48703;51.248;-0.546;2023-01-10T06:14:24;100736;;;5.26;89.53
62632;BME280;48703;51.248;-0.546;2023-01-10T06:17:26;100727;;;5.27;89.61
62632;BME280;48703;51.248;-0.546;2023-01-10T06:20:28;100724;;;5.29;89.84
62632;BME280;48703;51.248;-0.546;2023-01-10T06:23:30;100717;;;5.30;90.08
62632;BME280;48703;51.248;-0.546;2023-01-10T06:26:32;100702;;;5.31;90.31
62632;BME280;48703;51.248;-0.546;2023-01-10T06:29:34;100696;;;5.32;90.59
62632;BME280;48703;51.248;-0.546;2023-01-10T06:32:36;100687;;;5.32;90.95
62632;BME280;48703;51.248;-0.546;2023-01-10T06:35:38;100677;;;5.33;91.39
62632;BME280;48703;51.248;-0.546;2023-01-10T06:38:40;100675;;;5.34;91.73
62632;BME280;48703;51.248;-0.546;2023-01-10T06:41:42;100675;;;5.35;91.93
62632;BME280;48703;51.248;-0.546;2023-01-10T06:44:44;100666;;;5.37;91.97
62632;BME280;48703;51.248;-0.546;2023-01-10T06:47:46;100664;;;5.39;92.05
62632;BME280;48703;51.248;-0.546;2023-01-10T06:50:48;100657;;;5.40;92.32
62632;BME280;48703;51.248;-0.546;2023-01-10T06:53:50;100650;;;5.40;92.25
62632;BME280;48703;51.248;-0.546;2023-01-10T06:56:52;100644;;;5.42;92.45
62632;BME280;48703;51.248;-0.546;2023-01-10T06:59:54;100638;;;5.43;92.86
62632;BME280;48703;51.248;-0.546;2023-01-10T07:02:56;100635;;;5.45;93.23
62632;BME280;48703;51.248;-0.546;2023-01-10T07:05:59;100630;;;5.48;93.62
62632;BME280;48703;51.248;-0.546;2023-01-10T07:09:00;100630;;;5.52;94.08
62632;BME280;48703;51.248;-0.546;2023-01-10T07:12:02;100622;;;5.57;94.27
62632;BME280;48703;51.248;-0.546;2023-01-10T07:15:04;100621;;;5.62;94.55
62632;BME280;48703;51.248;-0.546;2023-01-10T07:18:06;100618;;;5.66;94.72
62632;BME280;48703;51.248;-0.546;2023-01-10T07:21:08;100608;;;5.71;94.78
62632;BME280;48703;51.248;-0.546;2023-01-10T07:24:10;100604;;;5.74;95.06
62632;BME280;48703;51.248;-0.546;2023-01-10T07:27:12;100605;;;5.77;95.08
62632;BME280;48703;51.248;-0.546;2023-01-10T07:30:14;100599;;;5.81;95.01
62632;BME280;48703;51.248;-0.546;2023-01-10T07:33:16;100594;;;5.84;95.24
62632;BME280;48703;51.248;-0.546;2023-01-10T07:36:18;100592;;;5.88;95.43
62632;BME280;48703;51.248;-0.546;2023-01-10T07:39:20;100587;;;5.92;95.50
62632;BME280;48703;51.248;-0.546;2023-01-10T07:42:22;100585;;;5.96;95.55
62632;BME280;48703;51.248;-0.546;2023-01-10T07:45:24;100581;;;6.01;95.67
62632;BME280;48703;51.248;-0.546;2023-01-10T07:48:26;100568;;;6.05;95.81
62632;BME280;48703;51.248;-0.546;2023-01-10T07:51:28;100561;;;6.08;95.54
62632;BME280;48703;51.248;-0.546;2023-01-10T07:54:30;100554;;;6.11;95.46
62632;BME280;48703;51.248;-0.546;2023-01-10T07:57:32;100541;;;6.14;95.13
62632;BME280;48703;51.248;-0.546;2023-01-10T08:00:34;100534;;;6.15;95.00
62632;BME280;48703;51.248;-0.546;2023-01-10T08:03:36;100529;;;6.17;94.96
62632;BME280;48703;51.248;-0.546;2023-01-10T08:06:38;100526;;;6.20;94.92
62632;BME280;48703;51.248;-0.546;2023-01-10T08:09:40;100527;;;6.22;94.80
62632;BME280;48703;51.248;-0.546;2023-01-10T08:12:42;100528;;;6.25;94.98
62632;BME280;48703;51.248;-0.546;2023-01-10T08:15:44;100518;;;6.26;94.75
62632;BME280;48703;51.248;-0.546;2023-01-10T08:18:46;100507;;;6.28;94.72
62632;BME280;48703;51.248;-0.546;2023-01-10T08:21:48;100507;;;6.30;94.83
62632;BME280;48703;51.248;-0.546;2023-01-10T08:24:50;100496;;;6.31;94.82
62632;BME280;48703;51.248;-0.546;2023-01-10T08:27:52;100486;;;6.33;94.79
62632;BME280;48703;51.248;-0.546;2023-01-10T08:30:54;100473;;;6.35;94.92
62632;BME280;48703;51.248;-0.546;2023-01-10T08:33:56;100456;;;6.37;95.06
62632;BME280;48703;51.248;-0.546;2023-01-10T08:36:58;100450;;;6.40;95.14
62632;BME280;48703;51.248;-0.546;2023-01-10T08:40:00;100451;;;6.43;95.37
62632;BME280;48703;51.248;-0.546;2023-01-10T08:43:02;100449;;;6.45;95.43
62632;BME280;48703;51.248;-0.546;2023-01-10T08:46:04;100449;;;6.47;95.54
62632;BME280;48703;51.248;-0.546;2023-01-10T08:49:06;100453;;;6.49;95.70
62632;BME280;48703;51.248;-0.546;2023-01-10T08:52:08;100445;;;6.52;95.97
62632;BME280;48703;51.248;-0.546;2023-01-10T08:55:10;100441;;;6.54;95.96
62632;BME280;48703;51.248;-0.546;2023-01-10T08:58:12;100439;;;6.56;96.07
62632;BME280;48703;51.248;-0.546;2023-01-10T09:01:14;100434;;;6.59;96.20
62632;BME280;48703;51.248;-0.546;2023-01-10T09:04:16;100434;;;6.62;96.38
62632;BME280;48703;51.248;-0.546;2023-01-10T09:07:18;100426;;;6.64;96.43
62632;BME280;48703;51.248;-0.546;2023-01-10T09:10:20;100425;;;6.67;96.74
62632;BME280;48703;51.248;-0.546;2023-01-10T09:13:22;100419;;;6.69;96.57
62632;BME280;48703;51.248;-0.546;2023-01-10T09:16:24;100410;;;6.71;96.60
62632;BME280;48703;51.248;-0.546;2023-01-10T09:19:26;100409;;;6.73;96.64
62632;BME280;48703;51.248;-0.546;2023-01-10T09:22:28;100400;;;6.75;96.67
62632;BME280;48703;51.248;-0.546;2023-01-10T09:25:30;100394;;;6.77;96.67
62632;BME280;48703;51.248;-0.546;2023-01-10T09:28:32;100386;;;6.80;96.80
62632;BME280;48703;51.248;-0.546;2023-01-10T09:31:34;100385;;;6.82;96.84
62632;BME280;48703;51.248;-0.546;2023-01-10T09:34:36;100383;;;6.84;96.80
62632;BME280;48703;51.248;-0.546;2023-01-10T09:37:38;100381;;;6.86;96.85
62632;BME280;48703;51.248;-0.546;2023-01-10T09:40:45;100384;;;6.89;96.97
62632;BME280;48703;51.248;-0.546;2023-01-10T09:43:45;100376;;;6.92;97.11
62632;BME280;48703;51.248;-0.546;2023-01-10T09:46:45;100372;;;6.96;97.15
62632;BME280;48703;51.248;-0.546;2023-01-10T09:49:47;100368;;;6.98;97.13
62632;BME280;48703;51.248;-0.546;2023-01-10T09:52:48;100363;;;7.00;97.08
62632;BME280;48703;51.248;-0.546;2023-01-10T09:55:50;100359;;;7.02;97.08
62632;BME280;48703;51.248;-0.546;2023-01-10T09:58:51;100355;;;7.05;97.15
62632;BME280;48703;51.248;-0.546;2023-01-10T10:01:54;100344;;;7.08;97.25
62632;BME280;48703;51.248;-0.546;2023-01-10T10:05:06;100336;;;7.11;97.35
62632;BME280;48703;51.248;-0.546;2023-01-10T10:07:59;100324;;;7.14;97.28
62632;BME280;48703;51.248;-0.546;2023-01-10T10:11:03;100319;;;7.17;97.48
62632;BME280;48703;51.248;-0.546;2023-01-10T10:14:02;100303;;;7.20;97.37
62632;BME280;48703;51.248;-0.546;2023-01-10T10:17:07;100302;;;7.24;97.68
62632;BME280;48703;51.248;-0.546;2023-01-10T10:20:11;100298;;;7.26;97.58
62632;BME280;48703;51.248;-0.546;2023-01-10T10:23:12;100297;;;7.30;97.62
62632;BME280;48703;51.248;-0.546;2023-01-10T10:26:11;100292;;;7.33;97.61
62632;BME280;48703;51.248;-0.546;2023-01-10T10:29:43;100289;;;7.36;97.63
62632;BME280;48703;51.248;-0.546;2023-01-10T10:32:18;100290;;;7.40;97.73
62632;BME280;48703;51.248;-0.546;2023-01-10T10:35:17;100284;;;7.43;97.67
62632;BME280;48703;51.248;-0.546;2023-01-10T10:38:18;100279;;;7.45;97.70
62632;BME280;48703;51.248;-0.546;2023-01-10T10:41:23;100264;;;7.49;97.74
62632;BME280;48703;51.248;-0.546;2023-01-10T10:44:26;100259;;;7.53;97.91
62632;BME280;48703;51.248;-0.546;2023-01-10T10:47:26;100256;;;7.55;97.72
62632;BME280;48703;51.248;-0.546;2023-01-10T10:50:27;100252;;;7.58;97.85
62632;BME280;48703;51.248;-0.546;2023-01-10T10:53:27;100247;;;7.62;98.04
62632;BME280;48703;51.248;-0.546;2023-01-10T10:56:29;100244;;;7.64;97.91
62632;BME280;48703;51.248;-0.546;2023-01-10T10:59:31;100237;;;7.67;97.95
62632;BME280;48703;51.248;-0.546;2023-01-10T11:02:38;100244;;;7.70;98.12
62632;BME280;48703;51.248;-0.546;2023-01-10T11:05:36;100225;;;7.73;98.09
62632;BME280;48703;51.248;-0.546;2023-01-10T11:08:38;100216;;;7.76;98.19
62632;BME280;48703;51.248;-0.546;2023-01-10T11:11:42;100199;;;7.79;98.14
62632;BME280;48703;51.248;-0.546;2023-01-10T11:14:42;100185;;;7.83;98.23
62632;BME280;48703;51.248;-0.546;2023-01-10T11:17:43;100181;;;7.87;98.30
62632;BME280;48703;51.248;-0.546;2023-01-10T11:20:47;100171;;;7.91;98.41
62632;BME280;48703;51.248;-0.546;2023-01-10T11:23:48;100170;;;7.95;98.48
62632;BME280;48703;51.248;-0.546;2023-01-10T11:26:49;100172;;;7.98;98.53
62632;BME280;48703;51.248;-0.546;2023-01-10T11:29:51;100163;;;8.02;98.51
62632;BME280;48703;51.248;-0.546;2023-01-10T11:32:54;100158;;;8.06;98.60
62632;BME280;48703;51.248;-0.546;2023-01-10T11:35:56;100148;;;8.09;98.60
62632;BME280;48703;51.248;-0.546;2023-01-10T11:38:58;100140;;;8.13;98.62
62632;BME280;48703;51.248;-0.546;2023-01-10T11:42:12;100125;;;8.18;98.93
62632;BME280;48703;51.248;-0.546;2023-01-10T11:45:34;100122;;;8.22;98.89
62632;BME280;48703;51.248;-0.546;2023-01-10T11:48:07;100115;;;8.26;98.89
62632;BME280;48703;51.248;-0.546;2023-01-10T11:51:12;100108;;;8.31;99.06
62632;BME280;48703;51.248;-0.546;2023-01-10T11:54:09;100101;;;8.36;99.20
62632;BME280;48703;51.248;-0.546;2023-01-10T11:57:13;100100;;;8.41;99.29
62632;BME280;48703;51.248;-0.546;2023-01-10T12:00:12;100097;;;8.47;99.44
62632;BME280;48703;51.248;-0.546;2023-01-10T12:03:15;100089;;;8.51;99.54
62632;BME280;48703;51.248;-0.546;2023-01-10T12:06:15;100090;;;8.61;100.00
62632;BME280;48703;51.248;-0.546;2023-01-10T12:09:30;100088;;;8.68;100.00
62632;BME280;48703;51.248;-0.546;2023-01-10T12:12:20;100089;;;8.74;100.00
62632;BME280;48703;51.248;-0.546;2023-01-10T12:15:22;100080;;;8.84;100.00
62632;BME280;48703;51.248;-0.546;2023-01-10T12:18:23;100077;;;8.92;100.00
62632;BME280;48703;51.248;-0.546;2023-01-10T12:21:28;100075;;;9.04;100.00
62632;BME280;48703;51.248;-0.546;2023-01-10T12:24:29;100069;;;9.10;100.00
62632;BME280;48703;51.248;-0.546;2023-01-10T12:27:29;100068;;;9.20;100.00
62632;BME280;48703;51.248;-0.546;2023-01-10T12:30:32;100065;;;9.26;100.00
62632;BME280;48703;51.248;-0.546;2023-01-10T12:33:34;100055;;;9.34;100.00
62632;BME280;48703;51.248;-0.546;2023-01-10T12:36:37;100054;;;9.44;100.00
62632;BME280;48703;51.248;-0.546;2023-01-10T12:39:38;100045;;;9.53;100.00
62632;BME280;48703;51.248;-0.546;2023-01-10T12:42:43;100034;;;9.62;100.00
62632;BME280;48703;51.248;-0.546;2023-01-10T12:45:42;100032;;;9.75;100.00
62632;BME280;48703;51.248;-0.546;2023-01-10T12:47:52;100027;;;9.82;100.00
62632;BME280;48703;51.248;-0.546;2023-01-10T12:50:47;100027;;;9.92;100.00
62632;BME280;48703;51.248;-0.546;2023-01-10T12:53:49;100029;;;9.98;100.00
62632;BME280;48703;51.248;-0.546;2023-01-10T12:56:49;100020;;;10.07;100.00
62632;BME280;48703;51.248;-0.546;2023-01-10T12:59:50;100017;;;10.10;100.00
62632;BME280;48703;51.248;-0.546;2023-01-10T13:02:53;100013;;;10.15;100.00
62632;BME280;48703;51.248;-0.546;2023-01-10T13:05:55;100010;;;10.23;100.00
62632;BME280;48703;51.248;-0.546;2023-01-10T13:08:57;100009;;;10.28;100.00
62632;BME280;48703;51.248;-0.546;2023-01-10T13:12:00;100005;;;10.32;100.00
62632;BME280;48703;51.248;-0.546;2023-01-10T13:15:02;100003;;;10.36;100.00
62632;BME280;48703;51.248;-0.546;2023-01-10T13:18:03;100003;;;10.39;100.00
62632;BME280;48703;51.248;-0.546;2023-01-10T13:21:05;99992;;;10.45;100.00
62632;BME280;48703;51.248;-0.546;2023-01-10T13:24:15;99990;;;10.48;100.00
62632;BME280;48703;51.248;-0.546;2023-01-10T13:27:14;99982;;;10.52;100.00
62632;BME280;48703;51.248;-0.546;2023-01-10T13:30:21;99979;;;10.55;100.00
62632;BME280;48703;51.248;-0.546;2023-01-10T13:33:17;99977;;;10.60;100.00
62632;BME280;48703;51.248;-0.546;2023-01-10T13:36:16;99970;;;10.65;100.00
62632;BME280;48703;51.248;-0.546;2023-01-10T13:39:18;99960;;;10.68;100.00
62632;BME280;48703;51.248;-0.546;2023-01-10T13:42:22;99962;;;10.73;100.00
62632;BME280;48703;51.248;-0.546;2023-01-10T13:45:22;99956;;;10.75;99.62
62632;BME280;48703;51.248;-0.546;2023-01-10T13:48:26;99955;;;10.79;99.38
62632;BME280;48703;51.248;-0.546;2023-01-10T13:51:25;99948;;;10.82;99.13
62632;BME280;48703;51.248;-0.546;2023-01-10T13:54:26;99945;;;10.85;98.93
62632;BME280;48703;51.248;-0.546;2023-01-10T14:00:48;99946;;;10.91;98.55
62632;BME280;48703;51.248;-0.546;2023-01-10T14:03:50;99943;;;10.93;98.36
62632;BME280;48703;51.248;-0.546;2023-01-10T14:06:36;99947;;;10.94;98.27
62632;BME280;48703;51.248;-0.546;2023-01-10T14:09:57;99947;;;10.96;98.21
62632;BME280;48703;51.248;-0.546;2023-01-10T14:12:39;99942;;;10.96;98.08
62632;BME280;48703;51.248;-0.546;2023-01-10T14:15:41;99939;;;10.98;98.09
62632;BME280;48703;51.248;-0.546;2023-01-10T14:18:42;99936;;;10.98;98.10
62632;BME280;48703;51.248;-0.546;2023-01-10T14:21:44;99934;;;10.99;98.20
62632;BME280;48703;51.248;-0.546;2023-01-10T14:24:48;99930;;;11.00;98.36
62632;BME280;48703;51.248;-0.546;2023-01-10T14:27:49;99927;;;11.02;98.43
62632;BME280;48703;51.248;-0.546;2023-01-10T14:30:54;99925;;;11.02;98.30
62632;BME280;48703;51.248;-0.546;2023-01-10T14:33:52;99929;;;11.04;98.32
62632;BME280;48703;51.248;-0.546;2023-01-10T14:36:56;99930;;;11.05;98.35
62632;BME280;48703;51.248;-0.546;2023-01-10T14:39:56;99930;;;11.07;98.30
62632;BME280;48703;51.248;-0.546;2023-01-10T14:42:59;99928;;;11.08;98.31
62632;BME280;48703;51.248;-0.546;2023-01-10T14:46:02;99928;;;11.08;98.18
62632;BME280;48703;51.248;-0.546;2023-01-10T14:49:15;99925;;;11.09;98.21
62632;BME280;48703;51.248;-0.546;2023-01-10T14:52:12;99924;;;11.10;98.24
62632;BME280;48703;51.248;-0.546;2023-01-10T14:55:09;99911;;;11.11;98.16
62632;BME280;48703;51.248;-0.546;2023-01-10T14:58:10;99916;;;11.13;98.26
62632;BME280;48703;51.248;-0.546;2023-01-10T15:01:10;99922;;;11.13;98.07
62632;BME280;48703;51.248;-0.546;2023-01-10T15:04:13;99921;;;11.14;98.08
62632;BME280;48703;51.248;-0.546;2023-01-10T15:07:14;99913;;;11.16;97.95
62632;BME280;48703;51.248;-0.546;2023-01-10T15:10:19;99913;;;11.15;97.90
62632;BME280;48703;51.248;-0.546;2023-01-10T15:13:18;99913;;;11.15;97.78
62632;BME280;48703;51.248;-0.546;2023-01-10T15:16:20;99912;;;11.15;97.67
62632;BME280;48703;51.248;-0.546;2023-01-10T15:19:22;99906;;;11.15;97.57
62632;BME280;48703;51.248;-0.546;2023-01-10T15:22:26;99900;;;11.15;97.41
62632;BME280;48703;51.248;-0.546;2023-01-10T15:25:28;99898;;;11.16;97.45
62632;BME280;48703;51.248;-0.546;2023-01-10T15:28:28;99892;;;11.16;97.37
62632;BME280;48703;51.248;-0.546;2023-01-10T15:31:30;99893;;;11.16;97.23
62632;BME280;48703;51.248;-0.546;2023-01-10T15:34:32;99892;;;11.17;97.20
62632;BME280;48703;51.248;-0.546;2023-01-10T15:37:35;99895;;;11.17;97.11
62632;BME280;48703;51.248;-0.546;2023-01-10T15:40:36;99889;;;11.16;97.14
62632;BME280;48703;51.248;-0.546;2023-01-10T15:43:38;99886;;;11.17;96.83
62632;BME280;48703;51.248;-0.546;2023-01-10T15:46:52;99882;;;11.17;96.71
62632;BME280;48703;51.248;-0.546;2023-01-10T15:49:42;99878;;;11.17;96.55
62632;BME280;48703;51.248;-0.546;2023-01-10T15:52:46;99877;;;11.18;96.48
62632;BME280;48703;51.248;-0.546;2023-01-10T15:55:47;99864;;;11.18;96.30
62632;BME280;48703;51.248;-0.546;2023-01-10T15:58:48;99863;;;11.19;96.20
62632;BME280;48703;51.248;-0.546;2023-01-10T16:01:52;99855;;;11.19;96.05
62632;BME280;48703;51.248;-0.546;2023-01-10T16:04:53;99856;;;11.20;95.88
62632;BME280;48703;51.248;-0.546;2023-01-10T16:07:54;99852;;;11.21;95.71
62632;BME280;48703;51.248;-0.546;2023-01-10T16:10:57;99847;;;11.22;95.60
62632;BME280;48703;51.248;-0.546;2023-01-10T16:13:58;99843;;;11.23;95.58
62632;BME280;48703;51.248;-0.546;2023-01-10T16:17:00;99840;;;11.22;95.70
62632;BME280;48703;51.248;-0.546;2023-01-10T16:20:02;99838;;;11.21;95.93
62632;BME280;48703;51.248;-0.546;2023-01-10T16:23:04;99836;;;11.20;96.04
62632;BME280;48703;51.248;-0.546;2023-01-10T16:26:06;99836;;;11.19;96.06
62632;BME280;48703;51.248;-0.546;2023-01-10T16:29:08;99840;;;11.19;96.00